Terminal Aerodrome Forecast
Issued by NWS

Home | Current Version | Previous Version | Text Only | Print | Product List | Glossary On
Versions: 1 2 3 4 5 6 7 8 9 10 11 12 13 14 15 16 17 18 19 20 21 22
000
FTUS43 KLSX 170216 AAA
TAFSUS
TAF AMD
KSUS 170216Z 1702/1724 18007KT 1SM BR OVC003
      TEMPO 1703/1705 -SHRA
     FM170500 24010KT 3SM BR OVC008
     FM170800 26008KT 6SM BR OVC010
     FM172100 27009KT P6SM OVC015=

USA.gov is the U.S. government's official web portal to all federal, state and local government web resources and services.